createdAt,value
2022-11-16T00:02:14.768Z,25.55
2022-11-16T00:04:41.849Z,29.10
2022-11-16T00:07:09.346Z,28.17
2022-11-16T00:09:36.375Z,32.17
2022-11-16T00:12:06.388Z,25.48
2022-11-16T00:14:35.176Z,28.45
2022-11-16T00:17:02.420Z,27.83
2022-11-16T00:19:29.822Z,23.65
2022-11-16T00:21:56.802Z,25.55
2022-11-16T00:24:23.994Z,22.35
2022-11-16T00:26:53.163Z,36.53
2022-11-16T00:29:22.809Z,23.73
2022-11-16T00:31:50.197Z,26.48
2022-11-16T00:34:16.993Z,20.40
2022-11-16T00:36:43.930Z,21.83
2022-11-16T00:39:12.380Z,19.67
2022-11-16T00:41:39.858Z,17.58
2022-11-16T00:44:06.988Z,17.70
2022-11-16T00:46:33.655Z,17.27
2022-11-16T00:49:00.315Z,19.55
2022-11-16T00:51:27.041Z,26.23
2022-11-16T00:53:53.672Z,21.50
2022-11-16T00:56:20.488Z,23.63
2022-11-16T00:58:47.116Z,19.55
2022-11-16T01:01:14.215Z,19.17
2022-11-16T01:03:41.715Z,21.58
2022-11-16T01:06:11.267Z,23.98
2022-11-16T01:08:39.599Z,20.98
2022-11-16T01:11:25.494Z,21.67
2022-11-16T01:13:52.519Z,18.77
2022-11-16T01:16:21.232Z,26.52
2022-11-16T01:18:49.974Z,27.38
2022-11-16T01:21:17.127Z,18.67
2022-11-16T01:23:43.894Z,18.83
2022-11-16T01:26:10.608Z,20.90
2022-11-16T01:28:37.330Z,26.42
2022-11-16T01:31:04.353Z,21.15
2022-11-16T01:33:31.247Z,22.42
2022-11-16T01:35:57.853Z,22.23
2022-11-16T01:38:29.396Z,18.52
2022-11-16T01:40:56.831Z,19.02
2022-11-16T01:43:25.358Z,21.00
2022-11-16T01:45:52.604Z,20.88
2022-11-16T01:48:27.637Z,16.52
2022-11-16T01:50:57.571Z,18.50
2022-11-16T01:53:25.037Z,18.83
2022-11-16T01:55:52.400Z,15.60
2022-11-16T01:58:24.697Z,21.30
2022-11-16T02:00:51.377Z,16.33
2022-11-16T02:03:19.469Z,13.23
2022-11-16T02:06:06.066Z,14.45
2022-11-16T02:08:57.341Z,12.65
2022-11-16T02:11:35.512Z,13.57
2022-11-16T02:14:37.880Z,11.95
2022-11-16T02:17:32.462Z,18.67
2022-11-16T02:20:07.903Z,12.90
2022-11-16T02:23:04.169Z,13.25
2022-11-16T02:25:45.673Z,15.52
2022-11-16T02:28:27.752Z,17.20
2022-11-16T02:30:58.929Z,11.52
2022-11-16T02:33:33.990Z,9.05
2022-11-16T02:36:03.761Z,10.98
2022-11-16T02:38:35.233Z,11.07
2022-11-16T02:41:08.224Z,10.68
2022-11-16T02:43:40.604Z,12.82
2022-11-16T02:46:12.402Z,10.00
2022-11-16T02:48:44.342Z,9.48
2022-11-16T02:51:12.083Z,9.05
2022-11-16T02:53:51.778Z,18.88
2022-11-16T02:56:19.313Z,21.63
2022-11-16T02:58:47.495Z,13.35
2022-11-16T03:01:22.294Z,16.48
2022-11-16T03:06:28.726Z,9.13
2022-11-16T03:09:01.166Z,11.63
2022-11-16T03:11:47.773Z,10.27
2022-11-16T03:14:17.618Z,11.05
2022-11-16T03:16:48.975Z,13.90
2022-11-16T03:19:22.311Z,10.63
2022-11-16T03:21:56.462Z,9.88
2022-11-16T03:24:23.456Z,11.85
2022-11-16T03:27:00.783Z,11.10
2022-11-16T03:29:33.876Z,11.15
2022-11-16T03:32:10.778Z,17.13
2022-11-16T03:34:40.706Z,12.13
2022-11-16T03:37:08.663Z,13.25
2022-11-16T03:39:39.410Z,18.48
2022-11-16T03:42:14.097Z,15.60
2022-11-16T03:44:42.664Z,12.18
2022-11-16T03:47:09.309Z,10.02
2022-11-16T03:49:36.014Z,9.68
2022-11-16T03:52:02.756Z,10.90
2022-11-16T03:54:29.362Z,12.18
2022-11-16T03:56:56.060Z,10.73
2022-11-16T03:59:22.801Z,12.05
2022-11-16T04:01:49.405Z,10.43
2022-11-16T04:04:36.052Z,10.02
2022-11-16T04:07:21.273Z,11.48
2022-11-16T04:10:06.332Z,9.75
2022-11-16T04:12:51.899Z,9.75
2022-11-16T04:15:37.322Z,10.50
2022-11-16T04:18:22.523Z,11.10
2022-11-16T04:23:52.976Z,12.52
